sensor_id;sensor_type;location;lat;lon;timestamp;P1;durP1;ratioP1;P2;durP2;ratioP2
76202;SDS011;64985;46.364;17.008;2022-11-20T00:02:37;53.35;;;27.38;;
76202;SDS011;64985;46.364;17.008;2022-11-20T00:05:39;54.85;;;30.25;;
76202;SDS011;64985;46.364;17.008;2022-11-20T00:08:41;48.22;;;26.42;;
76202;SDS011;64985;46.364;17.008;2022-11-20T00:11:43;52.78;;;27.85;;
76202;SDS011;64985;46.364;17.008;2022-11-20T00:14:45;56.78;;;27.45;;
76202;SDS011;64985;46.364;17.008;2022-11-20T00:17:47;51.17;;;26.58;;
76202;SDS011;64985;46.364;17.008;2022-11-20T00:20:49;48.83;;;26.73;;
76202;SDS011;64985;46.364;17.008;2022-11-20T00:23:52;44.13;;;25.58;;
76202;SDS011;64985;46.364;17.008;2022-11-20T00:26:55;53.72;;;27.55;;
76202;SDS011;64985;46.364;17.008;2022-11-20T00:29:58;54.33;;;25.27;;
76202;SDS011;64985;46.364;17.008;2022-11-20T00:33:00;50.35;;;25.10;;
76202;SDS011;64985;46.364;17.008;2022-11-20T00:36:05;49.72;;;25.30;;
76202;SDS011;64985;46.364;17.008;2022-11-20T00:39:09;45.70;;;23.35;;
76202;SDS011;64985;46.364;17.008;2022-11-20T00:42:11;48.80;;;23.90;;
76202;SDS011;64985;46.364;17.008;2022-11-20T00:45:13;48.00;;;25.30;;
76202;SDS011;64985;46.364;17.008;2022-11-20T00:48:15;50.97;;;24.80;;
76202;SDS011;64985;46.364;17.008;2022-11-20T00:51:18;42.97;;;23.08;;
76202;SDS011;64985;46.364;17.008;2022-11-20T00:54:22;43.38;;;23.13;;
76202;SDS011;64985;46.364;17.008;2022-11-20T01:00:26;39.45;;;20.88;;
76202;SDS011;64985;46.364;17.008;2022-11-20T01:03:30;38.78;;;20.77;;
76202;SDS011;64985;46.364;17.008;2022-11-20T01:06:34;39.50;;;21.30;;
76202;SDS011;64985;46.364;17.008;2022-11-20T01:09:38;37.17;;;20.88;;
76202;SDS011;64985;46.364;17.008;2022-11-20T01:12:40;36.20;;;19.90;;
76202;SDS011;64985;46.364;17.008;2022-11-20T01:15:42;44.17;;;22.88;;
76202;SDS011;64985;46.364;17.008;2022-11-20T01:18:45;50.03;;;25.55;;
76202;SDS011;64985;46.364;17.008;2022-11-20T01:21:50;47.03;;;24.25;;
76202;SDS011;64985;46.364;17.008;2022-11-20T01:24:54;36.42;;;19.27;;
76202;SDS011;64985;46.364;17.008;2022-11-20T01:27:56;35.40;;;20.13;;
76202;SDS011;64985;46.364;17.008;2022-11-20T01:30:58;31.27;;;18.23;;
76202;SDS011;64985;46.364;17.008;2022-11-20T01:37:05;34.60;;;18.27;;
76202;SDS011;64985;46.364;17.008;2022-11-20T01:43:14;31.08;;;15.85;;
76202;SDS011;64985;46.364;17.008;2022-11-20T01:46:22;30.20;;;17.43;;
76202;SDS011;64985;46.364;17.008;2022-11-20T01:49:27;34.30;;;17.73;;
76202;SDS011;64985;46.364;17.008;2022-11-20T01:52:38;33.70;;;17.52;;
76202;SDS011;64985;46.364;17.008;2022-11-20T01:55:45;27.20;;;16.00;;
76202;SDS011;64985;46.364;17.008;2022-11-20T01:58:54;35.60;;;16.98;;
76202;SDS011;64985;46.364;17.008;2022-11-20T02:01:59;31.23;;;17.40;;
76202;SDS011;64985;46.364;17.008;2022-11-20T02:05:03;35.30;;;17.08;;
76202;SDS011;64985;46.364;17.008;2022-11-20T02:08:31;34.03;;;16.42;;
76202;SDS011;64985;46.364;17.008;2022-11-20T02:11:34;25.73;;;15.38;;
76202;SDS011;64985;46.364;17.008;2022-11-20T02:14:36;35.00;;;16.95;;
76202;SDS011;64985;46.364;17.008;2022-11-20T02:17:38;28.95;;;15.43;;
76202;SDS011;64985;46.364;17.008;2022-11-20T02:20:42;24.33;;;15.13;;
76202;SDS011;64985;46.364;17.008;2022-11-20T02:27:16;27.35;;;15.25;;
76202;SDS011;64985;46.364;17.008;2022-11-20T02:30:19;28.30;;;15.52;;
76202;SDS011;64985;46.364;17.008;2022-11-20T02:33:21;29.65;;;16.30;;
76202;SDS011;64985;46.364;17.008;2022-11-20T02:36:23;31.05;;;15.23;;
76202;SDS011;64985;46.364;17.008;2022-11-20T02:39:28;30.48;;;15.85;;
76202;SDS011;64985;46.364;17.008;2022-11-20T02:42:30;31.30;;;16.92;;
76202;SDS011;64985;46.364;17.008;2022-11-20T02:45:32;31.65;;;17.60;;
76202;SDS011;64985;46.364;17.008;2022-11-20T02:48:35;35.25;;;18.58;;
76202;SDS011;64985;46.364;17.008;2022-11-20T02:51:37;35.80;;;17.95;;
76202;SDS011;64985;46.364;17.008;2022-11-20T02:54:39;30.02;;;16.95;;
76202;SDS011;64985;46.364;17.008;2022-11-20T02:57:41;29.20;;;16.27;;
76202;SDS011;64985;46.364;17.008;2022-11-20T03:00:43;30.17;;;16.23;;
76202;SDS011;64985;46.364;17.008;2022-11-20T03:03:45;29.63;;;15.18;;
76202;SDS011;64985;46.364;17.008;2022-11-20T03:06:49;33.13;;;17.73;;
76202;SDS011;64985;46.364;17.008;2022-11-20T03:09:51;33.08;;;16.40;;
76202;SDS011;64985;46.364;17.008;2022-11-20T03:12:54;28.95;;;16.45;;
76202;SDS011;64985;46.364;17.008;2022-11-20T03:15:57;29.02;;;17.33;;
76202;SDS011;64985;46.364;17.008;2022-11-20T03:18:59;30.00;;;17.73;;
76202;SDS011;64985;46.364;17.008;2022-11-20T03:22:01;30.33;;;16.33;;
76202;SDS011;64985;46.364;17.008;2022-11-20T03:25:04;31.90;;;16.45;;
76202;SDS011;64985;46.364;17.008;2022-11-20T03:28:06;31.75;;;16.90;;
76202;SDS011;64985;46.364;17.008;2022-11-20T03:31:09;26.00;;;12.30;;
76202;SDS011;64985;46.364;17.008;2022-11-20T03:34:14;30.33;;;15.93;;
76202;SDS011;64985;46.364;17.008;2022-11-20T03:37:16;33.15;;;15.82;;
76202;SDS011;64985;46.364;17.008;2022-11-20T03:40:18;29.83;;;15.65;;
76202;SDS011;64985;46.364;17.008;2022-11-20T03:43:20;33.28;;;16.20;;
76202;SDS011;64985;46.364;17.008;2022-11-20T03:46:23;29.77;;;15.55;;
76202;SDS011;64985;46.364;17.008;2022-11-20T03:52:27;33.88;;;15.95;;
76202;SDS011;64985;46.364;17.008;2022-11-20T03:55:29;35.38;;;18.92;;
76202;SDS011;64985;46.364;17.008;2022-11-20T03:58:32;37.03;;;20.08;;
76202;SDS011;64985;46.364;17.008;2022-11-20T04:01:36;33.55;;;19.33;;
76202;SDS011;64985;46.364;17.008;2022-11-20T04:04:39;36.83;;;19.58;;
76202;SDS011;64985;46.364;17.008;2022-11-20T04:07:41;27.02;;;15.27;;
76202;SDS011;64985;46.364;17.008;2022-11-20T04:10:43;34.42;;;18.17;;
76202;SDS011;64985;46.364;17.008;2022-11-20T04:13:46;34.92;;;19.25;;
76202;SDS011;64985;46.364;17.008;2022-11-20T04:16:49;40.83;;;18.98;;
76202;SDS011;64985;46.364;17.008;2022-11-20T04:19:51;39.50;;;20.27;;
76202;SDS011;64985;46.364;17.008;2022-11-20T04:22:53;35.88;;;19.13;;
76202;SDS011;64985;46.364;17.008;2022-11-20T04:26:03;30.50;;;17.60;;
76202;SDS011;64985;46.364;17.008;2022-11-20T04:29:12;35.90;;;20.70;;
76202;SDS011;64985;46.364;17.008;2022-11-20T04:32:14;38.20;;;20.95;;
76202;SDS011;64985;46.364;17.008;2022-11-20T04:35:16;39.45;;;21.58;;
76202;SDS011;64985;46.364;17.008;2022-11-20T04:38:19;55.05;;;31.55;;
76202;SDS011;64985;46.364;17.008;2022-11-20T04:41:21;46.95;;;25.58;;
76202;SDS011;64985;46.364;17.008;2022-11-20T04:44:25;44.78;;;25.50;;
76202;SDS011;64985;46.364;17.008;2022-11-20T04:47:27;39.25;;;20.45;;
76202;SDS011;64985;46.364;17.008;2022-11-20T04:50:29;33.75;;;20.33;;
76202;SDS011;64985;46.364;17.008;2022-11-20T04:53:31;37.42;;;20.85;;
76202;SDS011;64985;46.364;17.008;2022-11-20T04:56:33;38.00;;;19.73;;
76202;SDS011;64985;46.364;17.008;2022-11-20T04:59:36;40.58;;;21.85;;
76202;SDS011;64985;46.364;17.008;2022-11-20T05:02:38;42.58;;;22.13;;
76202;SDS011;64985;46.364;17.008;2022-11-20T05:05:40;40.10;;;21.58;;
76202;SDS011;64985;46.364;17.008;2022-11-20T05:08:42;41.45;;;21.45;;
76202;SDS011;64985;46.364;17.008;2022-11-20T05:11:44;41.22;;;21.75;;
76202;SDS011;64985;46.364;17.008;2022-11-20T05:14:52;41.85;;;21.33;;
76202;SDS011;64985;46.364;17.008;2022-11-20T05:17:54;40.55;;;20.73;;
76202;SDS011;64985;46.364;17.008;2022-11-20T05:20:56;46.92;;;22.42;;
76202;SDS011;64985;46.364;17.008;2022-11-20T05:23:59;42.50;;;22.10;;
76202;SDS011;64985;46.364;17.008;2022-11-20T05:27:01;37.85;;;21.00;;
76202;SDS011;64985;46.364;17.008;2022-11-20T05:30:04;46.35;;;22.77;;
76202;SDS011;64985;46.364;17.008;2022-11-20T05:33:07;48.90;;;24.05;;
76202;SDS011;64985;46.364;17.008;2022-11-20T05:36:10;47.45;;;22.85;;
76202;SDS011;64985;46.364;17.008;2022-11-20T05:39:13;44.17;;;22.80;;
76202;SDS011;64985;46.364;17.008;2022-11-20T05:42:15;41.10;;;21.48;;
76202;SDS011;64985;46.364;17.008;2022-11-20T05:45:32;44.03;;;22.08;;
76202;SDS011;64985;46.364;17.008;2022-11-20T05:48:35;44.75;;;21.60;;
76202;SDS011;64985;46.364;17.008;2022-11-20T05:51:38;48.03;;;22.83;;
76202;SDS011;64985;46.364;17.008;2022-11-20T05:54:40;47.38;;;24.33;;
76202;SDS011;64985;46.364;17.008;2022-11-20T05:57:42;46.83;;;24.02;;
76202;SDS011;64985;46.364;17.008;2022-11-20T06:00:44;55.20;;;25.38;;
76202;SDS011;64985;46.364;17.008;2022-11-20T06:03:46;58.70;;;28.40;;
76202;SDS011;64985;46.364;17.008;2022-11-20T06:06:49;57.53;;;26.40;;
76202;SDS011;64985;46.364;17.008;2022-11-20T06:09:51;56.88;;;26.95;;
76202;SDS011;64985;46.364;17.008;2022-11-20T06:12:53;49.80;;;25.17;;
76202;SDS011;64985;46.364;17.008;2022-11-20T06:15:56;50.05;;;26.85;;
76202;SDS011;64985;46.364;17.008;2022-11-20T06:18:58;53.53;;;26.05;;
76202;SDS011;64985;46.364;17.008;2022-11-20T06:22:00;50.53;;;26.15;;
76202;SDS011;64985;46.364;17.008;2022-11-20T06:25:02;48.58;;;26.63;;
76202;SDS011;64985;46.364;17.008;2022-11-20T06:28:04;51.60;;;25.92;;
76202;SDS011;64985;46.364;17.008;2022-11-20T06:31:07;55.15;;;27.83;;
76202;SDS011;64985;46.364;17.008;2022-11-20T06:34:11;56.63;;;27.80;;
76202;SDS011;64985;46.364;17.008;2022-11-20T06:37:13;54.63;;;27.08;;
76202;SDS011;64985;46.364;17.008;2022-11-20T06:40:16;52.03;;;26.77;;
76202;SDS011;64985;46.364;17.008;2022-11-20T06:43:18;57.00;;;27.10;;
76202;SDS011;64985;46.364;17.008;2022-11-20T06:46:20;49.22;;;25.55;;
76202;SDS011;64985;46.364;17.008;2022-11-20T06:52:25;57.95;;;26.25;;
76202;SDS011;64985;46.364;17.008;2022-11-20T06:55:27;63.38;;;29.80;;
76202;SDS011;64985;46.364;17.008;2022-11-20T06:58:30;59.55;;;28.98;;
76202;SDS011;64985;46.364;17.008;2022-11-20T07:01:33;54.35;;;28.33;;
76202;SDS011;64985;46.364;17.008;2022-11-20T07:04:36;69.53;;;29.17;;
76202;SDS011;64985;46.364;17.008;2022-11-20T07:07:38;62.97;;;28.13;;
76202;SDS011;64985;46.364;17.008;2022-11-20T07:10:44;65.35;;;30.95;;
76202;SDS011;64985;46.364;17.008;2022-11-20T07:13:46;59.10;;;28.40;;
76202;SDS011;64985;46.364;17.008;2022-11-20T07:16:48;56.22;;;27.65;;
76202;SDS011;64985;46.364;17.008;2022-11-20T07:19:50;56.58;;;27.75;;
76202;SDS011;64985;46.364;17.008;2022-11-20T07:22:53;69.55;;;29.65;;
76202;SDS011;64985;46.364;17.008;2022-11-20T07:25:56;59.92;;;27.70;;
76202;SDS011;64985;46.364;17.008;2022-11-20T07:28:58;55.88;;;27.63;;
76202;SDS011;64985;46.364;17.008;2022-11-20T07:32:00;56.25;;;28.90;;
76202;SDS011;64985;46.364;17.008;2022-11-20T07:35:02;58.40;;;29.13;;
76202;SDS011;64985;46.364;17.008;2022-11-20T07:38:05;54.42;;;27.23;;
76202;SDS011;64985;46.364;17.008;2022-11-20T07:41:07;52.15;;;28.58;;
76202;SDS011;64985;46.364;17.008;2022-11-20T07:44:09;58.17;;;27.38;;
76202;SDS011;64985;46.364;17.008;2022-11-20T07:47:11;57.50;;;28.95;;
76202;SDS011;64985;46.364;17.008;2022-11-20T07:50:13;53.97;;;29.45;;
76202;SDS011;64985;46.364;17.008;2022-11-20T07:53:16;54.90;;;28.55;;
76202;SDS011;64985;46.364;17.008;2022-11-20T07:56:22;55.00;;;28.42;;
76202;SDS011;64985;46.364;17.008;2022-11-20T07:59:24;54.08;;;29.40;;
76202;SDS011;64985;46.364;17.008;2022-11-20T08:02:26;51.78;;;27.83;;
76202;SDS011;64985;46.364;17.008;2022-11-20T08:05:28;57.80;;;27.75;;
76202;SDS011;64985;46.364;17.008;2022-11-20T08:08:30;55.58;;;28.95;;
76202;SDS011;64985;46.364;17.008;2022-11-20T08:11:34;60.55;;;30.42;;
76202;SDS011;64985;46.364;17.008;2022-11-20T08:14:55;59.90;;;30.55;;
76202;SDS011;64985;46.364;17.008;2022-11-20T08:18:03;58.88;;;30.23;;
76202;SDS011;64985;46.364;17.008;2022-11-20T08:21:32;61.90;;;29.90;;
76202;SDS011;64985;46.364;17.008;2022-11-20T08:24:38;52.83;;;28.33;;
76202;SDS011;64985;46.364;17.008;2022-11-20T08:27:40;47.85;;;23.50;;
76202;SDS011;64985;46.364;17.008;2022-11-20T08:30:42;56.83;;;28.40;;
76202;SDS011;64985;46.364;17.008;2022-11-20T08:33:44;54.25;;;27.35;;
76202;SDS011;64985;46.364;17.008;2022-11-20T08:36:47;56.15;;;28.70;;
76202;SDS011;64985;46.364;17.008;2022-11-20T08:39:48;53.13;;;28.52;;
76202;SDS011;64985;46.364;17.008;2022-11-20T08:42:50;55.45;;;28.63;;
76202;SDS011;64985;46.364;17.008;2022-11-20T08:45:53;60.22;;;27.75;;
76202;SDS011;64985;46.364;17.008;2022-11-20T08:48:57;47.63;;;27.38;;
76202;SDS011;64985;46.364;17.008;2022-11-20T08:52:00;55.17;;;29.70;;
76202;SDS011;64985;46.364;17.008;2022-11-20T08:55:02;48.40;;;26.17;;
76202;SDS011;64985;46.364;17.008;2022-11-20T08:58:06;55.05;;;27.33;;
76202;SDS011;64985;46.364;17.008;2022-11-20T09:01:08;50.13;;;28.05;;
76202;SDS011;64985;46.364;17.008;2022-11-20T09:04:10;50.80;;;28.35;;
76202;SDS011;64985;46.364;17.008;2022-11-20T09:07:15;53.90;;;27.63;;
76202;SDS011;64985;46.364;17.008;2022-11-20T09:10:17;50.47;;;27.83;;
76202;SDS011;64985;46.364;17.008;2022-11-20T09:13:27;44.45;;;26.45;;
76202;SDS011;64985;46.364;17.008;2022-11-20T09:16:29;49.33;;;25.90;;
76202;SDS011;64985;46.364;17.008;2022-11-20T09:19:31;45.05;;;26.17;;
76202;SDS011;64985;46.364;17.008;2022-11-20T09:22:39;47.15;;;24.85;;
76202;SDS011;64985;46.364;17.008;2022-11-20T09:25:42;47.28;;;26.73;;
76202;SDS011;64985;46.364;17.008;2022-11-20T09:28:44;46.72;;;25.42;;
76202;SDS011;64985;46.364;17.008;2022-11-20T09:31:47;47.65;;;25.08;;
76202;SDS011;64985;46.364;17.008;2022-11-20T09:34:49;41.17;;;23.63;;
76202;SDS011;64985;46.364;17.008;2022-11-20T09:37:51;43.63;;;26.13;;
76202;SDS011;64985;46.364;17.008;2022-11-20T09:40:57;43.50;;;24.83;;
76202;SDS011;64985;46.364;17.008;2022-11-20T09:47:22;46.45;;;25.52;;
76202;SDS011;64985;46.364;17.008;2022-11-20T09:50:43;44.15;;;24.30;;
76202;SDS011;64985;46.364;17.008;2022-11-20T09:54:05;40.88;;;24.25;;
76202;SDS011;64985;46.364;17.008;2022-11-20T10:00:18;42.17;;;23.23;;
76202;SDS011;64985;46.364;17.008;2022-11-20T10:07:03;47.58;;;26.08;;
76202;SDS011;64985;46.364;17.008;2022-11-20T10:13:48;49.42;;;26.98;;
76202;SDS011;64985;46.364;17.008;2022-11-20T10:20:42;52.30;;;28.27;;
76202;SDS011;64985;46.364;17.008;2022-11-20T10:30:44;38.83;;;22.17;;
76202;SDS011;64985;46.364;17.008;2022-11-20T10:33:51;38.22;;;23.05;;
76202;SDS011;64985;46.364;17.008;2022-11-20T10:37:13;42.17;;;24.40;;
76202;SDS011;64985;46.364;17.008;2022-11-20T10:43:38;38.13;;;23.15;;
76202;SDS011;64985;46.364;17.008;2022-11-20T10:46:42;41.47;;;26.08;;
76202;SDS011;64985;46.364;17.008;2022-11-20T10:49:53;41.75;;;25.25;;
76202;SDS011;64985;46.364;17.008;2022-11-20T10:56:21;37.55;;;22.63;;
76202;SDS011;64985;46.364;17.008;2022-11-20T11:00:00;35.97;;;21.15;;
76202;SDS011;64985;46.364;17.008;2022-11-20T11:06:29;36.53;;;22.33;;
76202;SDS011;64985;46.364;17.008;2022-11-20T11:09:38;43.42;;;24.45;;
76202;SDS011;64985;46.364;17.008;2022-11-20T11:12:47;39.47;;;24.83;;
76202;SDS011;64985;46.364;17.008;2022-11-20T11:15:49;39.83;;;25.88;;
76202;SDS011;64985;46.364;17.008;2022-11-20T11:19:03;38.10;;;23.77;;
76202;SDS011;64985;46.364;17.008;2022-11-20T11:22:16;34.55;;;20.42;;
76202;SDS011;64985;46.364;17.008;2022-11-20T11:28:35;34.80;;;21.70;;
76202;SDS011;64985;46.364;17.008;2022-11-20T11:31:37;39.03;;;23.15;;
76202;SDS011;64985;46.364;17.008;2022-11-20T11:34:39;40.75;;;24.17;;
76202;SDS011;64985;46.364;17.008;2022-11-20T11:37:42;42.72;;;24.33;;
76202;SDS011;64985;46.364;17.008;2022-11-20T11:40:44;38.92;;;23.30;;
76202;SDS011;64985;46.364;17.008;2022-11-20T11:43:52;39.08;;;24.40;;
76202;SDS011;64985;46.364;17.008;2022-11-20T11:47:22;38.78;;;22.08;;
76202;SDS011;64985;46.364;17.008;2022-11-20T11:50:27;40.90;;;24.65;;
76202;SDS011;64985;46.364;17.008;2022-11-20T11:53:30;39.65;;;22.95;;
76202;SDS011;64985;46.364;17.008;2022-11-20T11:56:42;36.60;;;22.93;;
76202;SDS011;64985;46.364;17.008;2022-11-20T12:00:03;41.13;;;23.17;;
76202;SDS011;64985;46.364;17.008;2022-11-20T12:03:16;38.45;;;23.60;;
76202;SDS011;64985;46.364;17.008;2022-11-20T12:06:28;41.30;;;23.23;;
76202;SDS011;64985;46.364;17.008;2022-11-20T12:09:37;40.00;;;24.23;;
76202;SDS011;64985;46.364;17.008;2022-11-20T12:12:51;43.15;;;24.38;;
76202;SDS011;64985;46.364;17.008;2022-11-20T12:15:57;45.85;;;24.35;;
76202;SDS011;64985;46.364;17.008;2022-11-20T12:19:00;41.60;;;23.00;;
76202;SDS011;64985;46.364;17.008;2022-11-20T12:25:16;43.03;;;23.27;;
76202;SDS011;64985;46.364;17.008;2022-11-20T12:38:57;33.38;;;17.83;;
76202;SDS011;64985;46.364;17.008;2022-11-20T12:42:31;39.08;;;22.10;;
76202;SDS011;64985;46.364;17.008;2022-11-20T12:46:27;41.60;;;24.58;;
76202;SDS011;64985;46.364;17.008;2022-11-20T13:06:13;49.53;;;25.08;;
76202;SDS011;64985;46.364;17.008;2022-11-20T13:09:19;38.85;;;23.42;;
76202;SDS011;64985;46.364;17.008;2022-11-20T13:12:25;37.58;;;22.77;;
76202;SDS011;64985;46.364;17.008;2022-11-20T13:15:42;38.35;;;21.85;;
76202;SDS011;64985;46.364;17.008;2022-11-20T13:18:56;39.78;;;22.35;;
76202;SDS011;64985;46.364;17.008;2022-11-20T13:22:02;36.78;;;19.85;;
76202;SDS011;64985;46.364;17.008;2022-11-20T13:25:08;35.75;;;21.77;;
76202;SDS011;64985;46.364;17.008;2022-11-20T13:31:28;38.70;;;21.05;;
76202;SDS011;64985;46.364;17.008;2022-11-20T13:34:33;43.35;;;23.38;;
76202;SDS011;64985;46.364;17.008;2022-11-20T13:37:38;42.90;;;23.25;;
76202;SDS011;64985;46.364;17.008;2022-11-20T13:44:04;39.38;;;20.42;;
76202;SDS011;64985;46.364;17.008;2022-11-20T13:47:26;38.80;;;21.40;;
76202;SDS011;64985;46.364;17.008;2022-11-20T13:50:40;39.00;;;22.15;;
76202;SDS011;64985;46.364;17.008;2022-11-20T13:54:01;36.13;;;20.38;;
76202;SDS011;64985;46.364;17.008;2022-11-20T14:01:00;31.15;;;16.45;;
76202;SDS011;64985;46.364;17.008;2022-11-20T14:04:14;38.92;;;20.65;;
76202;SDS011;64985;46.364;17.008;2022-11-20T14:07:24;37.35;;;21.02;;
76202;SDS011;64985;46.364;17.008;2022-11-20T14:10:34;34.20;;;18.88;;
76202;SDS011;64985;46.364;17.008;2022-11-20T14:16:39;33.35;;;18.20;;
76202;SDS011;64985;46.364;17.008;2022-11-20T14:19:43;36.53;;;19.98;;
76202;SDS011;64985;46.364;17.008;2022-11-20T14:22:49;35.70;;;20.95;;
76202;SDS011;64985;46.364;17.008;2022-11-20T14:25:52;37.63;;;20.63;;
76202;SDS011;64985;46.364;17.008;2022-11-20T14:28:55;36.88;;;21.73;;
76202;SDS011;64985;46.364;17.008;2022-11-20T14:31:58;34.55;;;19.60;;
76202;SDS011;64985;46.364;17.008;2022-11-20T14:35:08;38.85;;;20.25;;
76202;SDS011;64985;46.364;17.008;2022-11-20T14:38:16;39.22;;;21.63;;
76202;SDS011;64985;46.364;17.008;2022-11-20T14:41:21;35.60;;;20.05;;
76202;SDS011;64985;46.364;17.008;2022-11-20T14:44:32;36.83;;;20.00;;
76202;SDS011;64985;46.364;17.008;2022-11-20T14:47:35;38.67;;;21.48;;
76202;SDS011;64985;46.364;17.008;2022-11-20T14:50:38;32.53;;;19.95;;
76202;SDS011;64985;46.364;17.008;2022-11-20T14:53:41;36.58;;;19.35;;
76202;SDS011;64985;46.364;17.008;2022-11-20T15:03:16;33.85;;;20.15;;
76202;SDS011;64985;46.364;17.008;2022-11-20T15:06:24;31.95;;;18.67;;
76202;SDS011;64985;46.364;17.008;2022-11-20T15:09:28;35.40;;;19.15;;
76202;SDS011;64985;46.364;17.008;2022-11-20T15:12:31;30.65;;;17.67;;
76202;SDS011;64985;46.364;17.008;2022-11-20T15:15:39;38.05;;;18.75;;
76202;SDS011;64985;46.364;17.008;2022-11-20T15:18:56;30.38;;;16.30;;
76202;SDS011;64985;46.364;17.008;2022-11-20T15:21:59;33.10;;;19.05;;
76202;SDS011;64985;46.364;17.008;2022-11-20T15:25:02;29.63;;;16.90;;
76202;SDS011;64985;46.364;17.008;2022-11-20T15:31:31;32.25;;;17.52;;
76202;SDS011;64985;46.364;17.008;2022-11-20T15:34:33;28.20;;;16.02;;
76202;SDS011;64985;46.364;17.008;2022-11-20T15:37:36;34.90;;;16.83;;
76202;SDS011;64985;46.364;17.008;2022-11-20T15:40:40;30.00;;;16.67;;
76202;SDS011;64985;46.364;17.008;2022-11-20T15:43:42;35.28;;;19.58;;
76202;SDS011;64985;46.364;17.008;2022-11-20T15:46:45;31.05;;;16.73;;
76202;SDS011;64985;46.364;17.008;2022-11-20T15:49:48;28.17;;;17.48;;
76202;SDS011;64985;46.364;17.008;2022-11-20T15:52:50;32.22;;;18.40;;
76202;SDS011;64985;46.364;17.008;2022-11-20T15:55:54;39.50;;;23.40;;
76202;SDS011;64985;46.364;17.008;2022-11-20T16:01:58;34.20;;;17.77;;
76202;SDS011;64985;46.364;17.008;2022-11-20T16:08:07;27.98;;;15.70;;
76202;SDS011;64985;46.364;17.008;2022-11-20T16:11:13;32.78;;;18.27;;
76202;SDS011;64985;46.364;17.008;2022-11-20T16:14:17;31.52;;;18.17;;
76202;SDS011;64985;46.364;17.008;2022-11-20T16:17:38;38.10;;;18.95;;
76202;SDS011;64985;46.364;17.008;2022-11-20T16:20:48;35.95;;;19.83;;
76202;SDS011;64985;46.364;17.008;2022-11-20T16:23:52;36.42;;;19.83;;
76202;SDS011;64985;46.364;17.008;2022-11-20T16:29:57;38.10;;;21.23;;
76202;SDS011;64985;46.364;17.008;2022-11-20T16:33:01;38.95;;;20.77;;
76202;SDS011;64985;46.364;17.008;2022-11-20T16:36:11;28.75;;;17.60;;
76202;SDS011;64985;46.364;17.008;2022-11-20T16:39:15;25.50;;;15.00;;
76202;SDS011;64985;46.364;17.008;2022-11-20T16:42:24;28.85;;;16.17;;
76202;SDS011;64985;46.364;17.008;2022-11-20T16:45:26;31.05;;;16.15;;
76202;SDS011;64985;46.364;17.008;2022-11-20T16:48:34;29.73;;;15.65;;
76202;SDS011;64985;46.364;17.008;2022-11-20T16:51:37;30.35;;;18.10;;
76202;SDS011;64985;46.364;17.008;2022-11-20T16:54:39;34.83;;;18.35;;
76202;SDS011;64985;46.364;17.008;2022-11-20T16:57:42;32.13;;;18.98;;
76202;SDS011;64985;46.364;17.008;2022-11-20T17:00:46;37.22;;;20.00;;
76202;SDS011;64985;46.364;17.008;2022-11-20T17:03:53;30.55;;;17.65;;
76202;SDS011;64985;46.364;17.008;2022-11-20T17:07:04;33.72;;;18.45;;
76202;SDS011;64985;46.364;17.008;2022-11-20T17:10:08;32.53;;;18.45;;
76202;SDS011;64985;46.364;17.008;2022-11-20T17:13:11;34.55;;;19.75;;
76202;SDS011;64985;46.364;17.008;2022-11-20T17:16:15;30.75;;;17.58;;
76202;SDS011;64985;46.364;17.008;2022-11-20T17:19:23;39.42;;;22.40;;
76202;SDS011;64985;46.364;17.008;2022-11-20T17:25:31;31.95;;;18.15;;
76202;SDS011;64985;46.364;17.008;2022-11-20T17:28:37;34.75;;;20.25;;
76202;SDS011;64985;46.364;17.008;2022-11-20T17:31:40;33.30;;;17.33;;
76202;SDS011;64985;46.364;17.008;2022-11-20T17:34:44;34.38;;;16.52;;
76202;SDS011;64985;46.364;17.008;2022-11-20T17:40:49;30.00;;;16.35;;
76202;SDS011;64985;46.364;17.008;2022-11-20T17:43:53;38.67;;;20.58;;
76202;SDS011;64985;46.364;17.008;2022-11-20T17:46:56;52.80;;;32.72;;
76202;SDS011;64985;46.364;17.008;2022-11-20T17:49:59;34.28;;;19.13;;
76202;SDS011;64985;46.364;17.008;2022-11-20T17:53:03;33.75;;;19.48;;
76202;SDS011;64985;46.364;17.008;2022-11-20T17:56:06;42.72;;;24.60;;
76202;SDS011;64985;46.364;17.008;2022-11-20T17:59:28;42.78;;;22.75;;
76202;SDS011;64985;46.364;17.008;2022-11-20T18:05:32;32.28;;;16.92;;
76202;SDS011;64985;46.364;17.008;2022-11-20T18:11:38;38.53;;;20.17;;
76202;SDS011;64985;46.364;17.008;2022-11-20T18:14:42;31.00;;;16.13;;
76202;SDS011;64985;46.364;17.008;2022-11-20T18:20:51;35.15;;;16.95;;
76202;SDS011;64985;46.364;17.008;2022-11-20T18:23:54;39.97;;;19.33;;
76202;SDS011;64985;46.364;17.008;2022-11-20T18:26:57;41.42;;;19.35;;
76202;SDS011;64985;46.364;17.008;2022-11-20T18:30:00;35.72;;;18.00;;
76202;SDS011;64985;46.364;17.008;2022-11-20T18:33:03;35.47;;;17.98;;
76202;SDS011;64985;46.364;17.008;2022-11-20T18:36:07;43.35;;;19.35;;
76202;SDS011;64985;46.364;17.008;2022-11-20T18:39:11;37.00;;;19.20;;
76202;SDS011;64985;46.364;17.008;2022-11-20T18:42:15;47.33;;;20.00;;
76202;SDS011;64985;46.364;17.008;2022-11-20T18:45:39;41.35;;;19.55;;
76202;SDS011;64985;46.364;17.008;2022-11-20T18:48:42;40.10;;;17.90;;
76202;SDS011;64985;46.364;17.008;2022-11-20T18:51:45;54.33;;;21.65;;
76202;SDS011;64985;46.364;17.008;2022-11-20T18:54:50;45.38;;;20.50;;
76202;SDS011;64985;46.364;17.008;2022-11-20T18:57:53;44.28;;;19.85;;
76202;SDS011;64985;46.364;17.008;2022-11-20T19:01:03;38.40;;;17.42;;
76202;SDS011;64985;46.364;17.008;2022-11-20T19:04:11;38.65;;;17.50;;
76202;SDS011;64985;46.364;17.008;2022-11-20T19:07:15;52.40;;;20.63;;
76202;SDS011;64985;46.364;17.008;2022-11-20T19:10:18;54.22;;;21.75;;
76202;SDS011;64985;46.364;17.008;2022-11-20T19:13:21;45.33;;;22.23;;
76202;SDS011;64985;46.364;17.008;2022-11-20T19:16:23;47.63;;;24.48;;
76202;SDS011;64985;46.364;17.008;2022-11-20T19:19:27;46.58;;;19.95;;
76202;SDS011;64985;46.364;17.008;2022-11-20T19:22:30;64.55;;;22.48;;
76202;SDS011;64985;46.364;17.008;2022-11-20T19:28:38;46.28;;;19.83;;
76202;SDS011;64985;46.364;17.008;2022-11-20T19:31:42;46.50;;;19.40;;
76202;SDS011;64985;46.364;17.008;2022-11-20T19:34:44;47.55;;;19.27;;
76202;SDS011;64985;46.364;17.008;2022-11-20T19:37:47;43.40;;;19.55;;
76202;SDS011;64985;46.364;17.008;2022-11-20T19:40:50;48.15;;;19.95;;
76202;SDS011;64985;46.364;17.008;2022-11-20T19:43:56;54.00;;;19.15;;
76202;SDS011;64985;46.364;17.008;2022-11-20T19:47:05;54.35;;;18.90;;
76202;SDS011;64985;46.364;17.008;2022-11-20T19:50:15;68.15;;;23.98;;
76202;SDS011;64985;46.364;17.008;2022-11-20T19:53:19;62.53;;;19.45;;
76202;SDS011;64985;46.364;17.008;2022-11-20T19:56:22;48.78;;;19.17;;
76202;SDS011;64985;46.364;17.008;2022-11-20T19:59:26;41.55;;;18.02;;
76202;SDS011;64985;46.364;17.008;2022-11-20T20:02:29;48.22;;;19.60;;
76202;SDS011;64985;46.364;17.008;2022-11-20T20:05:32;43.33;;;18.27;;